sensor_id;sensor_type;location;lat;lon;timestamp;P1;durP1;ratioP1;P2;durP2;ratioP2
47383;SDS011;33129;52.232;5.192;2022-11-20T00:01:25;36.42;;;17.33;;
47383;SDS011;33129;52.232;5.192;2022-11-20T00:03:53;33.67;;;16.25;;
47383;SDS011;33129;52.232;5.192;2022-11-20T00:06:21;33.72;;;16.40;;
47383;SDS011;33129;52.232;5.192;2022-11-20T00:08:47;27.50;;;13.88;;
47383;SDS011;33129;52.232;5.192;2022-11-20T00:11:15;26.50;;;13.48;;
47383;SDS011;33129;52.232;5.192;2022-11-20T00:13:47;26.23;;;13.77;;
47383;SDS011;33129;52.232;5.192;2022-11-20T00:16:18;19.13;;;11.23;;
47383;SDS011;33129;52.232;5.192;2022-11-20T00:18:47;22.63;;;12.00;;
47383;SDS011;33129;52.232;5.192;2022-11-20T00:21:14;19.10;;;10.53;;
47383;SDS011;33129;52.232;5.192;2022-11-20T00:23:49;21.88;;;11.23;;
47383;SDS011;33129;52.232;5.192;2022-11-20T00:26:17;21.13;;;11.52;;
47383;SDS011;33129;52.232;5.192;2022-11-20T00:28:49;21.20;;;11.98;;
47383;SDS011;33129;52.232;5.192;2022-11-20T00:31:17;18.05;;;10.10;;
47383;SDS011;33129;52.232;5.192;2022-11-20T00:33:44;18.98;;;10.57;;
47383;SDS011;33129;52.232;5.192;2022-11-20T00:36:11;15.32;;;9.48;;
47383;SDS011;33129;52.232;5.192;2022-11-20T00:38:43;18.05;;;10.23;;
47383;SDS011;33129;52.232;5.192;2022-11-20T00:41:10;16.25;;;9.55;;
47383;SDS011;33129;52.232;5.192;2022-11-20T00:43:39;17.83;;;9.70;;
47383;SDS011;33129;52.232;5.192;2022-11-20T00:46:09;19.58;;;11.38;;
47383;SDS011;33129;52.232;5.192;2022-11-20T00:48:39;18.13;;;11.43;;
47383;SDS011;33129;52.232;5.192;2022-11-20T00:51:04;16.73;;;9.73;;
47383;SDS011;33129;52.232;5.192;2022-11-20T00:53:31;18.85;;;10.48;;
47383;SDS011;33129;52.232;5.192;2022-11-20T00:55:57;17.73;;;10.57;;
47383;SDS011;33129;52.232;5.192;2022-11-20T00:58:29;19.25;;;11.25;;
47383;SDS011;33129;52.232;5.192;2022-11-20T01:01:08;17.30;;;9.90;;
47383;SDS011;33129;52.232;5.192;2022-11-20T01:03:37;19.23;;;9.98;;
47383;SDS011;33129;52.232;5.192;2022-11-20T01:06:08;15.38;;;9.38;;
47383;SDS011;33129;52.232;5.192;2022-11-20T01:08:41;17.17;;;9.77;;
47383;SDS011;33129;52.232;5.192;2022-11-20T01:11:11;16.08;;;8.93;;
47383;SDS011;33129;52.232;5.192;2022-11-20T01:13:40;16.60;;;9.70;;
47383;SDS011;33129;52.232;5.192;2022-11-20T01:16:10;17.70;;;9.93;;
47383;SDS011;33129;52.232;5.192;2022-11-20T01:18:43;22.55;;;11.40;;
47383;SDS011;33129;52.232;5.192;2022-11-20T01:21:14;22.77;;;12.98;;
47383;SDS011;33129;52.232;5.192;2022-11-20T01:23:47;18.08;;;10.60;;
47383;SDS011;33129;52.232;5.192;2022-11-20T01:26:18;19.67;;;11.60;;
47383;SDS011;33129;52.232;5.192;2022-11-20T01:28:47;19.65;;;11.70;;
47383;SDS011;33129;52.232;5.192;2022-11-20T01:31:14;20.52;;;11.93;;
47383;SDS011;33129;52.232;5.192;2022-11-20T01:33:48;17.95;;;11.77;;
47383;SDS011;33129;52.232;5.192;2022-11-20T01:36:17;18.60;;;10.85;;
47383;SDS011;33129;52.232;5.192;2022-11-20T01:38:45;18.88;;;11.02;;
47383;SDS011;33129;52.232;5.192;2022-11-20T01:41:12;18.95;;;11.10;;
47383;SDS011;33129;52.232;5.192;2022-11-20T01:43:58;17.70;;;10.15;;
47383;SDS011;33129;52.232;5.192;2022-11-20T01:46:24;15.68;;;9.25;;
47383;SDS011;33129;52.232;5.192;2022-11-20T01:48:52;16.97;;;9.20;;
47383;SDS011;33129;52.232;5.192;2022-11-20T01:51:29;15.30;;;9.88;;
47383;SDS011;33129;52.232;5.192;2022-11-20T01:54:11;13.60;;;8.02;;
47383;SDS011;33129;52.232;5.192;2022-11-20T01:56:44;16.25;;;9.63;;
47383;SDS011;33129;52.232;5.192;2022-11-20T01:59:13;14.10;;;8.95;;
47383;SDS011;33129;52.232;5.192;2022-11-20T02:01:43;16.30;;;10.02;;
47383;SDS011;33129;52.232;5.192;2022-11-20T02:04:08;16.13;;;9.67;;
47383;SDS011;33129;52.232;5.192;2022-11-20T02:06:36;16.73;;;9.95;;
47383;SDS011;33129;52.232;5.192;2022-11-20T02:09:12;18.13;;;9.95;;
47383;SDS011;33129;52.232;5.192;2022-11-20T02:11:39;18.23;;;10.43;;
47383;SDS011;33129;52.232;5.192;2022-11-20T02:14:05;23.30;;;9.47;;
47383;SDS011;33129;52.232;5.192;2022-11-20T02:16:33;18.40;;;10.70;;
47383;SDS011;33129;52.232;5.192;2022-11-20T02:19:27;17.15;;;9.57;;
47383;SDS011;33129;52.232;5.192;2022-11-20T02:22:07;17.55;;;10.25;;
47383;SDS011;33129;52.232;5.192;2022-11-20T02:24:39;16.77;;;9.55;;
47383;SDS011;33129;52.232;5.192;2022-11-20T02:27:10;18.27;;;9.77;;
47383;SDS011;33129;52.232;5.192;2022-11-20T02:29:46;16.52;;;9.57;;
47383;SDS011;33129;52.232;5.192;2022-11-20T02:34:52;18.45;;;10.18;;
47383;SDS011;33129;52.232;5.192;2022-11-20T02:37:18;15.82;;;9.80;;
47383;SDS011;33129;52.232;5.192;2022-11-20T02:39:46;17.73;;;9.98;;
47383;SDS011;33129;52.232;5.192;2022-11-20T02:42:14;14.40;;;8.52;;
47383;SDS011;33129;52.232;5.192;2022-11-20T02:44:40;15.97;;;9.97;;
47383;SDS011;33129;52.232;5.192;2022-11-20T02:47:06;17.47;;;10.17;;
47383;SDS011;33129;52.232;5.192;2022-11-20T02:49:31;14.37;;;8.83;;
47383;SDS011;33129;52.232;5.192;2022-11-20T02:51:58;17.33;;;9.15;;
47383;SDS011;33129;52.232;5.192;2022-11-20T02:54:24;16.63;;;9.80;;
47383;SDS011;33129;52.232;5.192;2022-11-20T02:56:49;14.73;;;9.13;;
47383;SDS011;33129;52.232;5.192;2022-11-20T02:59:16;15.73;;;9.27;;
47383;SDS011;33129;52.232;5.192;2022-11-20T03:01:41;15.77;;;9.33;;
47383;SDS011;33129;52.232;5.192;2022-11-20T03:04:07;14.33;;;9.03;;
47383;SDS011;33129;52.232;5.192;2022-11-20T03:06:33;15.80;;;9.23;;
47383;SDS011;33129;52.232;5.192;2022-11-20T03:08:59;16.50;;;10.03;;
47383;SDS011;33129;52.232;5.192;2022-11-20T03:11:25;15.83;;;9.23;;
47383;SDS011;33129;52.232;5.192;2022-11-20T03:13:50;15.87;;;9.47;;
47383;SDS011;33129;52.232;5.192;2022-11-20T03:16:17;16.37;;;10.07;;
47383;SDS011;33129;52.232;5.192;2022-11-20T03:18:45;18.17;;;9.35;;
47383;SDS011;33129;52.232;5.192;2022-11-20T03:21:12;16.40;;;8.90;;
47383;SDS011;33129;52.232;5.192;2022-11-20T03:23:39;16.98;;;10.10;;
47383;SDS011;33129;52.232;5.192;2022-11-20T03:26:16;17.83;;;9.98;;
47383;SDS011;33129;52.232;5.192;2022-11-20T03:28:51;15.48;;;9.45;;
47383;SDS011;33129;52.232;5.192;2022-11-20T03:31:24;15.55;;;10.52;;
47383;SDS011;33129;52.232;5.192;2022-11-20T03:33:52;16.58;;;9.63;;
47383;SDS011;33129;52.232;5.192;2022-11-20T03:36:19;16.50;;;9.65;;
47383;SDS011;33129;52.232;5.192;2022-11-20T03:38:46;15.48;;;8.23;;
47383;SDS011;33129;52.232;5.192;2022-11-20T03:41:13;18.10;;;8.93;;
47383;SDS011;33129;52.232;5.192;2022-11-20T03:43:48;15.85;;;9.23;;
47383;SDS011;33129;52.232;5.192;2022-11-20T03:46:15;16.15;;;9.38;;
47383;SDS011;33129;52.232;5.192;2022-11-20T03:48:41;16.50;;;9.20;;
47383;SDS011;33129;52.232;5.192;2022-11-20T03:51:11;12.87;;;8.53;;
47383;SDS011;33129;52.232;5.192;2022-11-20T03:53:40;15.30;;;9.05;;
47383;SDS011;33129;52.232;5.192;2022-11-20T03:56:08;15.48;;;9.30;;
47383;SDS011;33129;52.232;5.192;2022-11-20T03:58:35;14.63;;;9.43;;
47383;SDS011;33129;52.232;5.192;2022-11-20T04:01:05;17.23;;;10.07;;
47383;SDS011;33129;52.232;5.192;2022-11-20T04:03:41;15.75;;;9.18;;
47383;SDS011;33129;52.232;5.192;2022-11-20T04:06:09;15.10;;;9.43;;
47383;SDS011;33129;52.232;5.192;2022-11-20T04:08:46;14.15;;;8.70;;
47383;SDS011;33129;52.232;5.192;2022-11-20T04:13:53;14.48;;;8.55;;
47383;SDS011;33129;52.232;5.192;2022-11-20T04:16:22;17.45;;;9.57;;
47383;SDS011;33129;52.232;5.192;2022-11-20T04:18:53;18.02;;;9.48;;
47383;SDS011;33129;52.232;5.192;2022-11-20T04:21:22;15.48;;;9.23;;
47383;SDS011;33129;52.232;5.192;2022-11-20T04:23:49;15.85;;;9.55;;
47383;SDS011;33129;52.232;5.192;2022-11-20T04:26:17;17.17;;;9.55;;
47383;SDS011;33129;52.232;5.192;2022-11-20T04:28:44;15.85;;;9.32;;
47383;SDS011;33129;52.232;5.192;2022-11-20T04:33:39;16.40;;;9.15;;
47383;SDS011;33129;52.232;5.192;2022-11-20T04:36:06;17.23;;;9.65;;
47383;SDS011;33129;52.232;5.192;2022-11-20T04:38:50;15.57;;;9.20;;
47383;SDS011;33129;52.232;5.192;2022-11-20T04:41:25;17.08;;;9.98;;
47383;SDS011;33129;52.232;5.192;2022-11-20T04:43:54;16.90;;;9.52;;
47383;SDS011;33129;52.232;5.192;2022-11-20T04:46:24;15.18;;;9.25;;
47383;SDS011;33129;52.232;5.192;2022-11-20T04:48:52;16.27;;;9.90;;
47383;SDS011;33129;52.232;5.192;2022-11-20T04:51:18;14.02;;;8.70;;
47383;SDS011;33129;52.232;5.192;2022-11-20T04:53:44;17.17;;;10.27;;
47383;SDS011;33129;52.232;5.192;2022-11-20T04:56:10;14.63;;;8.70;;
47383;SDS011;33129;52.232;5.192;2022-11-20T04:58:37;23.95;;;10.85;;
47383;SDS011;33129;52.232;5.192;2022-11-20T05:01:13;17.65;;;10.02;;
47383;SDS011;33129;52.232;5.192;2022-11-20T05:03:43;16.83;;;9.70;;
47383;SDS011;33129;52.232;5.192;2022-11-20T05:06:10;15.98;;;9.48;;
47383;SDS011;33129;52.232;5.192;2022-11-20T05:08:38;16.48;;;9.48;;
47383;SDS011;33129;52.232;5.192;2022-11-20T05:11:06;15.85;;;9.07;;
47383;SDS011;33129;52.232;5.192;2022-11-20T05:13:38;15.10;;;8.95;;
47383;SDS011;33129;52.232;5.192;2022-11-20T05:16:05;16.38;;;10.07;;
47383;SDS011;33129;52.232;5.192;2022-11-20T05:18:37;18.65;;;10.82;;
47383;SDS011;33129;52.232;5.192;2022-11-20T05:21:04;16.90;;;9.98;;
47383;SDS011;33129;52.232;5.192;2022-11-20T05:23:31;17.33;;;9.95;;
47383;SDS011;33129;52.232;5.192;2022-11-20T05:25:58;16.73;;;9.70;;
47383;SDS011;33129;52.232;5.192;2022-11-20T05:28:25;16.27;;;9.63;;
47383;SDS011;33129;52.232;5.192;2022-11-20T05:30:53;17.05;;;10.10;;
47383;SDS011;33129;52.232;5.192;2022-11-20T05:33:19;17.15;;;11.20;;
47383;SDS011;33129;52.232;5.192;2022-11-20T05:35:45;17.67;;;10.80;;
47383;SDS011;33129;52.232;5.192;2022-11-20T05:38:10;19.13;;;10.73;;
47383;SDS011;33129;52.232;5.192;2022-11-20T05:40:36;19.20;;;11.17;;
47383;SDS011;33129;52.232;5.192;2022-11-20T05:43:02;18.67;;;10.73;;
47383;SDS011;33129;52.232;5.192;2022-11-20T05:45:28;18.73;;;11.03;;
47383;SDS011;33129;52.232;5.192;2022-11-20T05:47:57;18.67;;;10.87;;
47383;SDS011;33129;52.232;5.192;2022-11-20T05:50:25;17.83;;;10.63;;
47383;SDS011;33129;52.232;5.192;2022-11-20T05:52:52;16.27;;;10.90;;
47383;SDS011;33129;52.232;5.192;2022-11-20T05:55:17;19.13;;;11.63;;
47383;SDS011;33129;52.232;5.192;2022-11-20T05:57:43;17.67;;;10.13;;
47383;SDS011;33129;52.232;5.192;2022-11-20T06:00:09;17.87;;;10.67;;
47383;SDS011;33129;52.232;5.192;2022-11-20T06:02:35;18.17;;;10.82;;
47383;SDS011;33129;52.232;5.192;2022-11-20T06:05:01;16.53;;;10.30;;
47383;SDS011;33129;52.232;5.192;2022-11-20T06:07:27;17.73;;;10.70;;
47383;SDS011;33129;52.232;5.192;2022-11-20T06:09:53;22.57;;;10.60;;
47383;SDS011;33129;52.232;5.192;2022-11-20T06:12:18;18.37;;;10.80;;
47383;SDS011;33129;52.232;5.192;2022-11-20T06:14:44;15.50;;;10.37;;
47383;SDS011;33129;52.232;5.192;2022-11-20T06:17:10;17.70;;;10.57;;
47383;SDS011;33129;52.232;5.192;2022-11-20T06:19:35;17.50;;;10.30;;
47383;SDS011;33129;52.232;5.192;2022-11-20T06:22:01;19.10;;;10.93;;
47383;SDS011;33129;52.232;5.192;2022-11-20T06:24:27;18.47;;;10.73;;
47383;SDS011;33129;52.232;5.192;2022-11-20T06:26:52;17.33;;;9.97;;
47383;SDS011;33129;52.232;5.192;2022-11-20T06:29:18;18.87;;;10.90;;
47383;SDS011;33129;52.232;5.192;2022-11-20T06:31:44;18.43;;;10.87;;
47383;SDS011;33129;52.232;5.192;2022-11-20T06:34:10;20.37;;;11.00;;
47383;SDS011;33129;52.232;5.192;2022-11-20T06:36:35;20.27;;;10.50;;
47383;SDS011;33129;52.232;5.192;2022-11-20T06:39:01;19.80;;;10.30;;
47383;SDS011;33129;52.232;5.192;2022-11-20T06:41:27;16.77;;;9.98;;
47383;SDS011;33129;52.232;5.192;2022-11-20T06:43:53;19.13;;;11.50;;
47383;SDS011;33129;52.232;5.192;2022-11-20T06:46:19;18.97;;;10.67;;
47383;SDS011;33129;52.232;5.192;2022-11-20T06:48:48;18.13;;;10.75;;
47383;SDS011;33129;52.232;5.192;2022-11-20T06:51:15;17.90;;;10.00;;
47383;SDS011;33129;52.232;5.192;2022-11-20T06:53:41;16.52;;;10.32;;
47383;SDS011;33129;52.232;5.192;2022-11-20T06:56:07;16.53;;;9.77;;
47383;SDS011;33129;52.232;5.192;2022-11-20T06:58:33;17.88;;;10.07;;
47383;SDS011;33129;52.232;5.192;2022-11-20T07:01:02;17.83;;;11.05;;
47383;SDS011;33129;52.232;5.192;2022-11-20T07:03:30;18.73;;;10.93;;
47383;SDS011;33129;52.232;5.192;2022-11-20T07:05:56;18.92;;;10.98;;
47383;SDS011;33129;52.232;5.192;2022-11-20T07:08:24;17.73;;;10.50;;
47383;SDS011;33129;52.232;5.192;2022-11-20T07:10:50;20.05;;;10.50;;
47383;SDS011;33129;52.232;5.192;2022-11-20T07:13:16;17.77;;;10.80;;
47383;SDS011;33129;52.232;5.192;2022-11-20T07:15:42;19.73;;;10.27;;
47383;SDS011;33129;52.232;5.192;2022-11-20T07:18:07;18.63;;;11.03;;
47383;SDS011;33129;52.232;5.192;2022-11-20T07:20:33;17.83;;;11.17;;
47383;SDS011;33129;52.232;5.192;2022-11-20T07:22:59;21.93;;;14.63;;
47383;SDS011;33129;52.232;5.192;2022-11-20T07:25:25;21.07;;;11.80;;
47383;SDS011;33129;52.232;5.192;2022-11-20T07:27:52;20.75;;;12.55;;
47383;SDS011;33129;52.232;5.192;2022-11-20T07:30:25;20.77;;;11.13;;
47383;SDS011;33129;52.232;5.192;2022-11-20T07:32:52;18.95;;;10.90;;
47383;SDS011;33129;52.232;5.192;2022-11-20T07:35:20;20.63;;;12.40;;
47383;SDS011;33129;52.232;5.192;2022-11-20T07:37:47;19.05;;;11.55;;
47383;SDS011;33129;52.232;5.192;2022-11-20T07:40:13;18.55;;;11.65;;
47383;SDS011;33129;52.232;5.192;2022-11-20T07:42:47;20.25;;;12.75;;
47383;SDS011;33129;52.232;5.192;2022-11-20T07:45:18;20.30;;;12.40;;
47383;SDS011;33129;52.232;5.192;2022-11-20T07:47:45;19.55;;;11.85;;
47383;SDS011;33129;52.232;5.192;2022-11-20T07:50:11;17.80;;;11.73;;
47383;SDS011;33129;52.232;5.192;2022-11-20T07:52:38;20.65;;;11.85;;
47383;SDS011;33129;52.232;5.192;2022-11-20T07:55:04;21.30;;;11.20;;
47383;SDS011;33129;52.232;5.192;2022-11-20T07:57:30;20.73;;;12.07;;
47383;SDS011;33129;52.232;5.192;2022-11-20T07:59:56;21.53;;;13.90;;
47383;SDS011;33129;52.232;5.192;2022-11-20T08:02:21;21.87;;;13.17;;
47383;SDS011;33129;52.232;5.192;2022-11-20T08:04:48;22.63;;;13.95;;
47383;SDS011;33129;52.232;5.192;2022-11-20T08:07:14;23.37;;;13.80;;
47383;SDS011;33129;52.232;5.192;2022-11-20T08:09:39;23.07;;;14.47;;
47383;SDS011;33129;52.232;5.192;2022-11-20T08:12:05;19.77;;;12.67;;
47383;SDS011;33129;52.232;5.192;2022-11-20T08:14:50;19.17;;;12.18;;
47383;SDS011;33129;52.232;5.192;2022-11-20T08:17:16;21.20;;;13.37;;
47383;SDS011;33129;52.232;5.192;2022-11-20T08:19:41;18.93;;;11.80;;
47383;SDS011;33129;52.232;5.192;2022-11-20T08:22:07;21.43;;;13.17;;
47383;SDS011;33129;52.232;5.192;2022-11-20T08:24:33;18.47;;;12.27;;
47383;SDS011;33129;52.232;5.192;2022-11-20T08:26:59;21.83;;;12.97;;
47383;SDS011;33129;52.232;5.192;2022-11-20T08:29:28;21.42;;;13.07;;
47383;SDS011;33129;52.232;5.192;2022-11-20T08:31:53;20.10;;;11.15;;
47383;SDS011;33129;52.232;5.192;2022-11-20T08:34:20;20.20;;;12.48;;
47383;SDS011;33129;52.232;5.192;2022-11-20T08:36:45;19.23;;;11.87;;
47383;SDS011;33129;52.232;5.192;2022-11-20T08:39:11;21.50;;;12.97;;
47383;SDS011;33129;52.232;5.192;2022-11-20T08:41:38;24.27;;;13.75;;
47383;SDS011;33129;52.232;5.192;2022-11-20T08:44:04;23.30;;;13.30;;
47383;SDS011;33129;52.232;5.192;2022-11-20T08:46:36;23.83;;;14.30;;
47383;SDS011;33129;52.232;5.192;2022-11-20T08:49:07;24.30;;;13.70;;
47383;SDS011;33129;52.232;5.192;2022-11-20T08:51:36;25.55;;;14.77;;
47383;SDS011;33129;52.232;5.192;2022-11-20T08:54:03;25.33;;;14.75;;
47383;SDS011;33129;52.232;5.192;2022-11-20T08:56:29;23.08;;;14.60;;
47383;SDS011;33129;52.232;5.192;2022-11-20T08:58:55;21.58;;;13.55;;
47383;SDS011;33129;52.232;5.192;2022-11-20T09:01:22;23.60;;;13.63;;
47383;SDS011;33129;52.232;5.192;2022-11-20T09:03:48;21.98;;;12.90;;
47383;SDS011;33129;52.232;5.192;2022-11-20T09:06:14;21.60;;;13.82;;
47383;SDS011;33129;52.232;5.192;2022-11-20T09:08:41;22.65;;;14.20;;
47383;SDS011;33129;52.232;5.192;2022-11-20T09:11:07;22.52;;;14.02;;
47383;SDS011;33129;52.232;5.192;2022-11-20T09:13:34;24.95;;;14.95;;
47383;SDS011;33129;52.232;5.192;2022-11-20T09:16:02;25.50;;;14.38;;
47383;SDS011;33129;52.232;5.192;2022-11-20T09:18:33;25.88;;;13.73;;
47383;SDS011;33129;52.232;5.192;2022-11-20T09:21:12;21.48;;;13.70;;
47383;SDS011;33129;52.232;5.192;2022-11-20T09:23:39;25.13;;;14.55;;
47383;SDS011;33129;52.232;5.192;2022-11-20T09:26:06;25.58;;;14.80;;
47383;SDS011;33129;52.232;5.192;2022-11-20T09:28:37;23.05;;;14.32;;
47383;SDS011;33129;52.232;5.192;2022-11-20T09:31:07;23.58;;;14.25;;
47383;SDS011;33129;52.232;5.192;2022-11-20T09:33:35;25.55;;;15.60;;
47383;SDS011;33129;52.232;5.192;2022-11-20T09:36:01;23.77;;;14.57;;
47383;SDS011;33129;52.232;5.192;2022-11-20T09:38:27;22.70;;;14.40;;
47383;SDS011;33129;52.232;5.192;2022-11-20T09:41:05;23.87;;;14.67;;
47383;SDS011;33129;52.232;5.192;2022-11-20T09:46:22;24.15;;;13.77;;
47383;SDS011;33129;52.232;5.192;2022-11-20T09:54:44;26.60;;;16.08;;
47383;SDS011;33129;52.232;5.192;2022-11-20T09:57:13;29.65;;;17.48;;
47383;SDS011;33129;52.232;5.192;2022-11-20T10:04:57;29.90;;;17.83;;
47383;SDS011;33129;52.232;5.192;2022-11-20T10:07:30;25.90;;;16.33;;
47383;SDS011;33129;52.232;5.192;2022-11-20T10:10:04;23.48;;;14.70;;
47383;SDS011;33129;52.232;5.192;2022-11-20T10:12:38;25.58;;;15.30;;
47383;SDS011;33129;52.232;5.192;2022-11-20T10:15:28;28.00;;;15.13;;
47383;SDS011;33129;52.232;5.192;2022-11-20T10:18:09;23.27;;;14.35;;
47383;SDS011;33129;52.232;5.192;2022-11-20T10:23:57;26.80;;;15.65;;
47383;SDS011;33129;52.232;5.192;2022-11-20T10:29:46;23.30;;;14.20;;
47383;SDS011;33129;52.232;5.192;2022-11-20T10:32:30;24.02;;;14.88;;
47383;SDS011;33129;52.232;5.192;2022-11-20T10:35:24;28.15;;;16.13;;
47383;SDS011;33129;52.232;5.192;2022-11-20T10:38:00;26.73;;;16.35;;
47383;SDS011;33129;52.232;5.192;2022-11-20T10:40:32;25.48;;;15.40;;
47383;SDS011;33129;52.232;5.192;2022-11-20T10:43:28;26.75;;;15.20;;
47383;SDS011;33129;52.232;5.192;2022-11-20T10:46:00;25.70;;;16.25;;
47383;SDS011;33129;52.232;5.192;2022-11-20T10:48:31;28.92;;;16.15;;
47383;SDS011;33129;52.232;5.192;2022-11-20T10:53:58;28.08;;;16.85;;
47383;SDS011;33129;52.232;5.192;2022-11-20T10:56:35;27.30;;;17.10;;
47383;SDS011;33129;52.232;5.192;2022-11-20T10:59:28;28.75;;;16.70;;
47383;SDS011;33129;52.232;5.192;2022-11-20T11:02:20;31.65;;;17.20;;
47383;SDS011;33129;52.232;5.192;2022-11-20T11:04:52;28.67;;;16.48;;
47383;SDS011;33129;52.232;5.192;2022-11-20T11:07:21;30.58;;;16.55;;
47383;SDS011;33129;52.232;5.192;2022-11-20T11:10:05;29.80;;;17.95;;
47383;SDS011;33129;52.232;5.192;2022-11-20T11:12:45;31.73;;;17.50;;
47383;SDS011;33129;52.232;5.192;2022-11-20T11:15:28;30.13;;;17.65;;
47383;SDS011;33129;52.232;5.192;2022-11-20T11:18:03;29.05;;;18.00;;
47383;SDS011;33129;52.232;5.192;2022-11-20T11:20:29;31.08;;;18.52;;
47383;SDS011;33129;52.232;5.192;2022-11-20T11:22:57;32.60;;;17.42;;
47383;SDS011;33129;52.232;5.192;2022-11-20T11:28:02;32.13;;;18.45;;
47383;SDS011;33129;52.232;5.192;2022-11-20T11:30:43;32.85;;;18.20;;
47383;SDS011;33129;52.232;5.192;2022-11-20T11:33:11;34.58;;;20.35;;
47383;SDS011;33129;52.232;5.192;2022-11-20T11:35:45;36.15;;;18.92;;
47383;SDS011;33129;52.232;5.192;2022-11-20T11:38:44;33.67;;;19.67;;
47383;SDS011;33129;52.232;5.192;2022-11-20T11:41:12;35.90;;;21.08;;
47383;SDS011;33129;52.232;5.192;2022-11-20T11:43:55;35.60;;;19.77;;
47383;SDS011;33129;52.232;5.192;2022-11-20T11:46:54;38.67;;;20.63;;
47383;SDS011;33129;52.232;5.192;2022-11-20T11:49:22;35.40;;;20.52;;
47383;SDS011;33129;52.232;5.192;2022-11-20T12:00:16;37.25;;;21.90;;
47383;SDS011;33129;52.232;5.192;2022-11-20T12:08:18;41.60;;;22.13;;
47383;SDS011;33129;52.232;5.192;2022-11-20T12:16:12;51.25;;;26.55;;
47383;SDS011;33129;52.232;5.192;2022-11-20T12:18:40;46.25;;;23.42;;
47383;SDS011;33129;52.232;5.192;2022-11-20T12:31:54;43.53;;;23.73;;
47383;SDS011;33129;52.232;5.192;2022-11-20T12:35:04;41.25;;;23.88;;
47383;SDS011;33129;52.232;5.192;2022-11-20T12:50:46;40.65;;;22.73;;
47383;SDS011;33129;52.232;5.192;2022-11-20T13:02:40;38.85;;;22.77;;
47383;SDS011;33129;52.232;5.192;2022-11-20T13:08:07;46.50;;;25.75;;
47383;SDS011;33129;52.232;5.192;2022-11-20T13:11:01;46.88;;;24.30;;
47383;SDS011;33129;52.232;5.192;2022-11-20T13:13:53;45.30;;;25.70;;
47383;SDS011;33129;52.232;5.192;2022-11-20T13:17:16;42.65;;;24.33;;
47383;SDS011;33129;52.232;5.192;2022-11-20T13:19:50;41.58;;;24.23;;
47383;SDS011;33129;52.232;5.192;2022-11-20T13:22:31;41.60;;;24.58;;
47383;SDS011;33129;52.232;5.192;2022-11-20T13:25:26;39.65;;;22.73;;
47383;SDS011;33129;52.232;5.192;2022-11-20T13:27:52;40.72;;;22.92;;
47383;SDS011;33129;52.232;5.192;2022-11-20T13:30:20;39.47;;;23.00;;
47383;SDS011;33129;52.232;5.192;2022-11-20T13:33:35;42.92;;;22.63;;
47383;SDS011;33129;52.232;5.192;2022-11-20T13:36:04;41.60;;;22.95;;
47383;SDS011;33129;52.232;5.192;2022-11-20T13:38:48;42.50;;;23.48;;
47383;SDS011;33129;52.232;5.192;2022-11-20T13:41:32;39.55;;;22.98;;
47383;SDS011;33129;52.232;5.192;2022-11-20T13:44:09;39.90;;;23.80;;
47383;SDS011;33129;52.232;5.192;2022-11-20T13:46:49;46.83;;;26.15;;
47383;SDS011;33129;52.232;5.192;2022-11-20T13:49:26;42.90;;;24.37;;
47383;SDS011;33129;52.232;5.192;2022-11-20T13:55:02;45.33;;;26.63;;
47383;SDS011;33129;52.232;5.192;2022-11-20T14:00:30;43.05;;;24.27;;
47383;SDS011;33129;52.232;5.192;2022-11-20T14:05:49;42.22;;;24.08;;
47383;SDS011;33129;52.232;5.192;2022-11-20T14:08:30;43.75;;;25.77;;
47383;SDS011;33129;52.232;5.192;2022-11-20T14:11:12;45.17;;;24.58;;
47383;SDS011;33129;52.232;5.192;2022-11-20T14:13:59;43.60;;;24.63;;
47383;SDS011;33129;52.232;5.192;2022-11-20T14:16:45;46.33;;;24.27;;
47383;SDS011;33129;52.232;5.192;2022-11-20T14:22:07;47.53;;;24.95;;
47383;SDS011;33129;52.232;5.192;2022-11-20T14:24:35;41.30;;;24.13;;
47383;SDS011;33129;52.232;5.192;2022-11-20T14:27:00;41.63;;;24.30;;
47383;SDS011;33129;52.232;5.192;2022-11-20T14:29:28;43.73;;;25.77;;
47383;SDS011;33129;52.232;5.192;2022-11-20T14:31:59;43.00;;;24.08;;
47383;SDS011;33129;52.232;5.192;2022-11-20T14:34:27;41.85;;;24.67;;
47383;SDS011;33129;52.232;5.192;2022-11-20T14:36:57;42.80;;;24.13;;
47383;SDS011;33129;52.232;5.192;2022-11-20T14:39:34;45.60;;;24.42;;
47383;SDS011;33129;52.232;5.192;2022-11-20T14:42:19;42.07;;;23.60;;
47383;SDS011;33129;52.232;5.192;2022-11-20T14:44:48;43.45;;;23.88;;
47383;SDS011;33129;52.232;5.192;2022-11-20T14:47:19;39.65;;;23.25;;
47383;SDS011;33129;52.232;5.192;2022-11-20T14:49:49;47.40;;;24.83;;
47383;SDS011;33129;52.232;5.192;2022-11-20T14:52:19;45.90;;;26.23;;
47383;SDS011;33129;52.232;5.192;2022-11-20T14:54:51;50.87;;;25.97;;
47383;SDS011;33129;52.232;5.192;2022-11-20T14:59:48;47.57;;;26.10;;
47383;SDS011;33129;52.232;5.192;2022-11-20T15:02:13;47.90;;;25.53;;
47383;SDS011;33129;52.232;5.192;2022-11-20T15:07:22;43.37;;;25.53;;
47383;SDS011;33129;52.232;5.192;2022-11-20T15:10:04;49.05;;;26.20;;
47383;SDS011;33129;52.232;5.192;2022-11-20T15:12:34;42.50;;;23.90;;
47383;SDS011;33129;52.232;5.192;2022-11-20T15:15:03;44.80;;;24.17;;
47383;SDS011;33129;52.232;5.192;2022-11-20T15:17:31;49.40;;;24.67;;
47383;SDS011;33129;52.232;5.192;2022-11-20T15:20:00;44.13;;;24.37;;
47383;SDS011;33129;52.232;5.192;2022-11-20T15:22:28;47.43;;;25.93;;
47383;SDS011;33129;52.232;5.192;2022-11-20T15:24:53;48.20;;;26.17;;
47383;SDS011;33129;52.232;5.192;2022-11-20T15:27:19;45.07;;;25.23;;
47383;SDS011;33129;52.232;5.192;2022-11-20T15:29:45;49.20;;;25.90;;
47383;SDS011;33129;52.232;5.192;2022-11-20T15:32:11;47.73;;;25.77;;
47383;SDS011;33129;52.232;5.192;2022-11-20T15:34:36;47.53;;;26.60;;
47383;SDS011;33129;52.232;5.192;2022-11-20T15:37:02;44.70;;;23.67;;
47383;SDS011;33129;52.232;5.192;2022-11-20T15:39:28;49.47;;;27.70;;
47383;SDS011;33129;52.232;5.192;2022-11-20T15:41:53;48.77;;;26.07;;
47383;SDS011;33129;52.232;5.192;2022-11-20T15:44:19;52.97;;;26.83;;
47383;SDS011;33129;52.232;5.192;2022-11-20T15:46:45;47.13;;;26.57;;
47383;SDS011;33129;52.232;5.192;2022-11-20T15:49:14;45.53;;;24.67;;
47383;SDS011;33129;52.232;5.192;2022-11-20T15:51:44;44.15;;;25.05;;
47383;SDS011;33129;52.232;5.192;2022-11-20T15:54:13;42.07;;;24.63;;
47383;SDS011;33129;52.232;5.192;2022-11-20T15:56:45;45.57;;;24.23;;
47383;SDS011;33129;52.232;5.192;2022-11-20T15:59:12;46.63;;;24.93;;
47383;SDS011;33129;52.232;5.192;2022-11-20T16:01:41;45.30;;;25.43;;
47383;SDS011;33129;52.232;5.192;2022-11-20T16:04:11;45.30;;;25.93;;
47383;SDS011;33129;52.232;5.192;2022-11-20T16:06:39;40.80;;;24.20;;
47383;SDS011;33129;52.232;5.192;2022-11-20T16:09:05;47.40;;;26.10;;
47383;SDS011;33129;52.232;5.192;2022-11-20T16:11:34;43.10;;;25.67;;
47383;SDS011;33129;52.232;5.192;2022-11-20T16:14:03;43.20;;;25.17;;
47383;SDS011;33129;52.232;5.192;2022-11-20T16:16:49;40.87;;;23.80;;
47383;SDS011;33129;52.232;5.192;2022-11-20T16:19:15;44.13;;;25.53;;
47383;SDS011;33129;52.232;5.192;2022-11-20T16:21:42;44.43;;;24.80;;
47383;SDS011;33129;52.232;5.192;2022-11-20T16:24:09;47.23;;;27.10;;
47383;SDS011;33129;52.232;5.192;2022-11-20T16:26:38;41.88;;;24.05;;
47383;SDS011;33129;52.232;5.192;2022-11-20T16:29:05;42.97;;;23.53;;